Time;durP1;ratioP1;P1;durP2;ratioP2;P2;SDS_P1;SDS_P2;PMS_P1;PMS_P2;Temp;Humidity;BMP_temperature;BMP_pressure;BME280_temperature;BME280_humidity;BME280_pressure;Samples;Min_cycle;Max_cycle;Signal;HPM_P1;HPM_P2
2022/05/15 00:05:36;;;;;;;11.00;2.47;;;;;;;12.51;64.54;101013.81;5113601;57;1141272;-74
2022/05/15 00:10:44;;;;;;;9.50;2.83;;;;;;;12.45;64.73;101018.26;5185285;56;1141031;-74
2022/05/15 00:15:50;;;;;;;12.83;4.70;;;;;;;12.45;64.82;101014.28;5208009;56;1139242;-73
2022/05/15 00:20:56;;;;;;;10.00;3.10;;;;;;;12.29;64.96;101015.09;5241467;56;1141290;-73
2022/05/15 00:26:05;;;;;;;13.47;3.00;;;;;;;12.14;65.27;101023.74;5241450;56;1138968;-73
2022/05/15 00:31:12;;;;;;;11.10;3.37;;;;;;;12.10;65.56;101023.60;5234476;56;1138974;-73
2022/05/15 00:36:18;;;;;;;10.10;2.90;;;;;;;12.00;65.76;101025.75;5221672;56;1138981;-73
2022/05/15 00:41:24;;;;;;;16.90;4.20;;;;;;;11.89;65.97;101021.27;5157611;56;1139033;-73
2022/05/15 00:46:34;;;;;;;4.43;2.40;;;;;;;11.68;66.41;101026.32;5134529;57;1139068;-73
2022/05/15 00:51:52;;;;;;;9.63;2.47;;;;;;;11.48;67.08;101030.91;5187172;56;1137389;-73
2022/05/15 00:57:14;;;;;;;6.73;3.07;;;;;;;11.33;67.66;101031.55;5172932;56;1137162;-74
2022/05/15 01:02:22;;;;;;;7.37;2.83;;;;;;;11.28;68.25;101029.73;5059515;57;1137101;-73
2022/05/15 01:07:28;;;;;;;15.77;4.50;;;;;;;11.12;68.57;101027.81;5084314;57;1136929;-73
2022/05/15 01:12:35;;;;;;;11.03;3.43;;;;;;;11.03;69.02;101035.07;5061547;57;1138644;-73
2022/05/15 01:17:41;;;;;;;15.13;3.67;;;;;;;10.99;69.62;101031.82;5056602;58;1139109;-74
2022/05/15 01:22:47;;;;;;;13.13;3.13;;;;;;;10.95;69.61;101038.28;5105055;57;1137225;-73
2022/05/15 01:28:21;;;;;;;8.67;4.37;;;;;;;10.93;70.03;101038.38;5140726;57;1136971;-73
2022/05/15 01:33:28;;;;;;;11.40;2.77;;;;;;;10.96;70.05;101042.62;5209490;55;1139057;-73
2022/05/15 01:38:34;;;;;;;10.32;2.87;;;;;;;11.01;70.07;101046.23;5115279;56;1141110;-73
2022/05/15 01:43:43;;;;;;;7.63;2.83;;;;;;;11.15;70.06;101045.62;5052059;58;1141160;-73
2022/05/15 01:48:51;;;;;;;9.00;3.17;;;;;;;11.21;69.86;101046.52;5059424;56;1139038;-73
2022/05/15 01:53:57;;;;;;;11.13;3.20;;;;;;;11.29;69.94;101052.61;5160813;56;1139002;-73
2022/05/15 01:59:04;;;;;;;14.23;3.97;;;;;;;11.35;69.85;101056.12;5071430;56;1141124;-73
2022/05/15 02:04:10;;;;;;;11.83;3.90;;;;;;;11.37;69.75;101052.88;5047840;57;1141107;-73
2022/05/15 02:09:17;;;;;;;13.20;3.40;;;;;;;11.45;69.71;101051.86;5087814;57;1141127;-73
2022/05/15 02:14:23;;;;;;;9.30;3.60;;;;;;;11.37;69.09;101060.83;5047613;58;1141186;-73
2022/05/15 02:19:29;;;;;;;12.87;3.40;;;;;;;11.34;69.42;101053.09;5047890;57;1138913;-73
2022/05/15 02:24:35;;;;;;;8.60;3.20;;;;;;;11.34;69.29;101050.92;4982057;58;1141124;-73
2022/05/15 02:29:41;;;;;;;16.17;3.80;;;;;;;11.28;69.28;101061.50;4970435;58;1139287;-73
2022/05/15 02:34:46;;;;;;;10.83;3.37;;;;;;;11.23;69.35;101054.36;4942744;58;1141167;-73
2022/05/15 02:39:52;;;;;;;9.10;4.60;;;;;;;11.18;69.39;101056.00;5176911;56;1141361;-73
2022/05/15 02:44:58;;;;;;;10.70;3.00;;;;;;;11.19;69.53;101060.34;5216614;56;1139008;-73
2022/05/15 02:55:30;;;;;;;10.43;3.75;;;;;;;11.28;69.48;101064.16;5208645;56;1139050;-73
2022/05/15 03:00:35;;;;;;;11.40;3.50;;;;;;;11.26;69.73;101058.96;5143391;56;1141175;-73
2022/05/15 03:05:40;;;;;;;17.70;5.03;;;;;;;11.26;69.80;101069.55;5129927;57;1141124;-73
2022/05/15 03:10:46;;;;;;;11.47;4.07;;;;;;;11.22;69.54;101067.22;5047202;57;1141237;-73
2022/05/15 03:15:52;;;;;;;12.20;4.03;;;;;;;11.17;69.45;101086.08;5046952;57;1141527;-73
2022/05/15 03:20:58;;;;;;;11.40;3.70;;;;;;;11.09;69.54;101071.70;5086286;56;1141151;-73
2022/05/15 03:26:05;;;;;;;11.73;3.33;;;;;;;11.04;69.49;101087.91;5121737;57;1141086;-73
2022/05/15 03:31:11;;;;;;;12.83;3.23;;;;;;;10.98;69.55;101094.97;5121743;57;1141031;-73
2022/05/15 03:36:17;;;;;;;13.22;3.37;;;;;;;10.92;69.66;101098.03;5089466;56;1141347;-73
2022/05/15 03:41:23;;;;;;;25.67;4.10;;;;;;;10.82;69.68;101100.48;5156635;55;1141158;-73
2022/05/15 03:46:29;;;;;;;6.63;2.20;;;;;;;10.82;69.73;101103.12;5103227;56;1141078;-74
2022/05/15 03:51:36;;;;;;;12.03;3.70;;;;;;;10.80;69.95;101110.80;5104806;56;1138972;-73
2022/05/15 03:56:51;;;;;;;12.13;4.20;;;;;;;10.72;70.33;101113.11;5100227;56;1141621;-72
2022/05/15 04:02:00;;;;;;;17.97;3.70;;;;;;;10.54;70.79;101125.81;5160988;56;1139058;-73
2022/05/15 04:07:07;;;;;;;14.60;3.73;;;;;;;10.42;71.49;101136.72;5189483;56;1139317;-72
2022/05/15 04:12:14;;;;;;;8.50;3.53;;;;;;;10.23;72.01;101133.13;5134976;56;1139152;-73
2022/05/15 04:17:20;;;;;;;17.20;4.33;;;;;;;10.20;72.62;101137.80;5174590;56;1136979;-72
2022/05/15 04:22:26;;;;;;;13.53;4.57;;;;;;;10.12;73.22;101140.89;5221453;56;1138981;-73
2022/05/15 04:27:32;;;;;;;11.43;4.33;;;;;;;10.08;73.79;101146.00;5176369;56;1139078;-72
2022/05/15 04:32:41;;;;;;;18.50;4.57;;;;;;;10.11;74.65;101143.64;5204958;56;1139273;-72
2022/05/15 04:37:47;;;;;;;14.50;3.80;;;;;;;10.10;75.08;101149.88;5180475;56;1138496;-73
2022/05/15 04:42:53;;;;;;;11.33;3.40;;;;;;;10.12;75.64;101149.30;5080997;56;1139031;-73
2022/05/15 04:47:59;;;;;;;10.77;3.07;;;;;;;10.16;76.38;101151.66;5057795;58;1139060;-73
2022/05/15 04:53:06;;;;;;;11.60;3.10;;;;;;;10.21;77.22;101161.97;5118412;57;1139024;-73
2022/05/15 04:58:12;;;;;;;11.33;3.47;;;;;;;10.26;77.47;101165.61;5125584;57;1138952;-73
2022/05/15 05:03:18;;;;;;;12.17;3.60;;;;;;;10.30;78.41;101166.63;5059185;58;1138989;-73
2022/05/15 05:08:24;;;;;;;7.23;3.10;;;;;;;10.32;78.38;101160.77;5095487;57;1139013;-73
2022/05/15 05:13:29;;;;;;;11.63;3.33;;;;;;;10.40;79.08;101165.06;5145200;57;1137212;-74
2022/05/15 05:18:35;;;;;;;13.17;3.17;;;;;;;10.56;79.51;101168.85;5145774;57;1137012;-73
2022/05/15 05:23:41;;;;;;;9.45;2.98;;;;;;;10.76;79.80;101165.72;5145649;57;1136977;-73
2022/05/15 05:28:48;;;;;;;7.40;2.70;;;;;;;10.88;79.35;101170.64;5145954;57;1138991;-73
2022/05/15 05:33:56;;;;;;;5.53;2.23;;;;;;;10.99;79.26;101180.04;5184714;56;1139067;-73
2022/05/15 05:39:02;;;;;;;11.23;3.77;;;;;;;11.12;79.82;101182.69;5179872;56;1139033;-73
2022/05/15 05:44:08;;;;;;;7.97;3.30;;;;;;;11.19;79.81;101179.96;5059089;58;1141270;-73
2022/05/15 05:49:14;;;;;;;5.27;2.23;;;;;;;11.34;79.27;101185.52;5059184;57;1139095;-73
2022/05/15 05:54:20;;;;;;;7.07;2.40;;;;;;;11.40;79.04;101171.00;5058804;57;1138926;-72
2022/05/15 05:59:27;;;;;;;11.43;2.80;;;;;;;11.60;78.40;101191.16;5062353;58;1139213;-73
2022/05/15 06:04:46;;;;;;;13.07;4.00;;;;;;;11.73;78.15;101204.86;5110182;58;1141093;-73
2022/05/15 06:09:53;;;;;;;11.67;3.03;;;;;;;11.84;77.48;101201.83;5136108;57;1141112;-73
2022/05/15 06:14:58;;;;;;;5.43;2.27;;;;;;;12.05;77.55;101209.20;5123226;57;1141259;-73
2022/05/15 06:20:11;;;;;;;13.67;3.33;;;;;;;12.16;76.37;101207.45;5057996;57;1139159;-73
2022/05/15 06:25:16;;;;;;;3.67;1.97;;;;;;;12.32;76.55;101206.69;5057912;57;1141111;-73
2022/05/15 06:30:23;;;;;;;7.80;2.37;;;;;;;12.44;74.82;101209.38;5057915;57;1139266;-73
2022/05/15 06:35:29;;;;;;;7.43;1.87;;;;;;;12.51;74.81;101210.16;5051792;57;1139268;-73
2022/05/15 06:40:35;;;;;;;6.90;1.80;;;;;;;12.64;73.68;101217.56;5043675;57;1139033;-73
2022/05/15 06:45:41;;;;;;;8.23;1.93;;;;;;;12.75;73.64;101218.55;5019671;58;1139020;-73
2022/05/15 06:50:49;;;;;;;2.40;1.30;;;;;;;12.99;72.22;101210.88;5020987;57;1138926;-73
2022/05/15 07:01:18;;;;;;;5.67;1.55;;;;;;;13.34;68.07;101217.97;5077228;56;1139045;-73
2022/05/15 07:06:24;;;;;;;11.13;2.13;;;;;;;13.40;66.48;101219.31;5082162;57;1139058;-73
2022/05/15 07:11:30;;;;;;;7.17;2.20;;;;;;;13.48;67.63;101226.19;4964612;58;1141623;-73
2022/05/15 07:16:36;;;;;;;6.60;2.57;;;;;;;13.84;66.41;101214.46;4878496;59;1138999;-72
2022/05/15 07:21:41;;;;;;;10.72;1.70;;;;;;;13.84;66.41;101214.46;4899939;59;1139074;-74
2022/05/15 07:26:47;;;;;;;5.20;1.70;;;;;;;14.06;64.66;101221.91;4956331;59;1141381;-73
2022/05/15 07:31:56;;;;;;;12.17;2.20;;;;;;;14.10;63.72;101226.50;4966537;59;1138375;-72
2022/05/15 07:37:02;;;;;;;6.78;1.45;;;;;;;14.14;65.29;101225.77;4938617;59;1141153;-73
2022/05/15 07:42:09;;;;;;;5.77;1.80;;;;;;;14.40;62.59;101233.82;4977029;57;1138995;-73
2022/05/15 07:47:16;;;;;;;8.97;2.10;;;;;;;14.52;63.49;101231.47;4933466;57;1139106;-73
2022/05/15 07:52:22;;;;;;;10.57;1.80;;;;;;;14.68;61.65;101233.70;5014908;58;1139292;-74
2022/05/15 07:57:28;;;;;;;4.77;1.80;;;;;;;14.73;61.99;101227.52;5005337;58;1141071;-73
2022/05/15 08:02:33;;;;;;;11.53;2.50;;;;;;;14.74;61.83;101227.88;4976839;58;1139046;-74
2022/05/15 08:13:03;;;;;;;9.18;1.90;;;;;;;15.16;62.03;101233.20;5057857;58;1136971;-74
2022/05/15 08:23:40;;;;;;;6.53;2.00;;;;;;;15.14;58.15;101231.52;4976860;57;1137202;-73
2022/05/15 08:28:46;;;;;;;3.90;1.00;;;;;;;15.23;56.96;101242.38;5048890;58;1136976;-74
2022/05/15 08:33:51;;;;;;;8.93;1.33;;;;;;;15.36;58.27;101239.86;5034388;58;1136931;-74
2022/05/15 08:38:58;;;;;;;6.93;1.67;;;;;;;15.54;58.60;101233.91;4980859;58;1136963;-74
2022/05/15 08:44:23;;;;;;;7.53;1.90;;;;;;;15.81;55.93;101233.70;4983459;58;1136937;-74
2022/05/15 08:49:42;;;;;;;7.37;1.20;;;;;;;15.91;57.18;101232.39;5025913;57;1138990;-75
2022/05/15 08:55:14;;;;;;;6.57;1.43;;;;;;;16.23;53.37;101236.67;5087913;57;1139013;-75
2022/05/15 09:00:24;;;;;;;7.10;2.33;;;;;;;16.24;53.00;101228.53;5049338;57;1138865;-74
2022/05/15 09:22:14;;;;;;;6.53;1.20;;;;;;;16.74;52.82;101224.45;5440210;53;46328;-73
2022/05/15 09:27:26;;;;;;;9.87;1.80;;;;;;;16.86;54.05;101226.83;5171534;56;1134779;-74
2022/05/15 09:32:43;;;;;;;2.70;1.70;;;;;;;17.04;50.88;101228.28;5128939;56;1139231;-74
2022/05/15 09:43:32;;;;;;;2.27;0.93;;;;;;;17.15;50.45;101237.47;5124716;56;1137240;-74
2022/05/15 09:48:57;;;;;;;5.37;1.20;;;;;;;17.31;49.44;101228.00;5138249;56;1136923;-74
2022/05/15 09:54:03;;;;;;;5.17;1.20;;;;;;;17.55;50.95;101227.02;5189549;56;1137244;-74
2022/05/15 09:59:14;;;;;;;3.43;1.07;;;;;;;17.76;50.56;101220.11;5071040;56;1136968;-74
2022/05/15 10:04:30;;;;;;;4.77;1.73;;;;;;;17.90;49.12;101221.80;5202236;55;1136986;-74
2022/05/15 10:09:40;;;;;;;5.13;1.03;;;;;;;17.97;50.32;101221.21;5124320;56;1134883;-74
2022/05/15 10:14:52;;;;;;;4.07;1.23;;;;;;;18.14;48.33;101219.91;5194884;56;1138978;-74
2022/05/15 10:20:04;;;;;;;1.07;0.80;;;;;;;18.31;51.25;101218.75;5196242;56;1139557;-73
2022/05/15 10:25:21;;;;;;;2.44;0.72;;;;;;;18.52;47.00;101208.05;5176601;56;1138979;-73
2022/05/15 10:30:33;;;;;;;2.80;0.80;;;;;;;18.53;46.44;101208.90;5128482;56;1138784;-73
2022/05/15 10:35:49;;;;;;;4.57;1.17;;;;;;;18.64;46.26;101199.84;5187116;56;1139032;-73
2022/05/15 10:40:59;;;;;;;5.33;1.37;;;;;;;18.84;46.32;101202.66;5216282;56;1139137;-74
2022/05/15 10:46:36;;;;;;;3.95;0.98;;;;;;;18.96;45.13;101197.39;5196421;56;1139255;-73
2022/05/15 10:52:15;;;;;;;5.67;1.42;;;;;;;19.14;45.12;101189.30;5183751;56;1139063;-73
2022/05/15 10:57:48;;;;;;;2.33;0.90;;;;;;;19.58;43.43;101169.44;5171755;56;1139314;-75
2022/05/15 11:03:15;;;;;;;3.65;1.22;;;;;;;19.58;43.43;101169.44;5185272;56;1138943;-74
2022/05/15 11:08:46;;;;;;;6.35;1.40;;;;;;;19.57;42.64;101173.63;5172874;56;1137133;-73
2022/05/15 11:14:17;;;;;;;8.23;1.07;;;;;;;19.53;42.21;101176.31;5133602;56;1136882;-76
2022/05/15 11:19:38;;;;;;;3.00;1.60;;;;;;;19.64;42.54;101162.60;5153628;56;1136922;-75
2022/05/15 11:25:05;;;;;;;4.53;0.98;;;;;;;19.86;41.25;101159.83;5108603;57;1137401;-76
2022/05/15 11:30:15;;;;;;;5.30;1.20;;;;;;;19.84;41.66;101165.36;5106440;57;1139237;-76
2022/05/15 11:35:26;;;;;;;2.95;1.37;;;;;;;19.87;43.27;101149.41;5033405;57;1139001;-75
2022/05/15 11:40:46;;;;;;;1.50;0.75;;;;;;;20.17;41.27;101154.16;5016823;57;1138998;-77
2022/05/15 11:45:53;;;;;;;4.83;1.05;;;;;;;20.35;40.73;101144.62;5057835;56;1138981;-76
2022/05/15 11:51:20;;;;;;;1.82;0.72;;;;;;;20.43;41.58;101135.27;5082669;56;1139043;-75
2022/05/15 11:56:39;;;;;;;1.60;0.90;;;;;;;20.52;38.33;101130.21;5035475;58;1139102;-76
2022/05/15 12:01:52;;;;;;;1.57;0.80;;;;;;;20.53;38.09;101133.73;4955375;58;1139003;-74
2022/05/15 12:07:02;;;;;;;4.70;1.22;;;;;;;20.50;37.88;101128.19;4927511;58;1139103;-74
2022/05/15 12:12:28;;;;;;;2.00;0.92;;;;;;;20.52;38.99;101114.09;4995289;58;1139136;-75
2022/05/15 12:17:38;;;;;;;2.70;1.10;;;;;;;20.81;38.76;101116.23;5086722;57;1139161;-74
2022/05/15 12:23:00;;;;;;;4.45;1.12;;;;;;;20.98;38.83;101115.19;5133770;56;1139139;-74
2022/05/15 12:33:45;;;;;;;2.33;0.90;;;;;;;21.24;37.93;101107.40;5186130;55;1136965;-75
2022/05/15 12:38:55;;;;;;;5.75;1.98;;;;;;;21.31;39.24;101099.81;5189406;56;1137019;-74
2022/05/15 12:44:02;;;;;;;3.00;1.00;;;;;;;21.39;36.68;101090.34;5141113;56;1136987;-74
2022/05/15 12:49:10;;;;;;;3.72;1.00;;;;;;;21.39;36.59;101096.23;5114322;57;1136973;-75
2022/05/15 12:54:31;;;;;;;4.90;1.05;;;;;;;21.60;39.33;101095.13;5109059;57;1137238;-74
2022/05/15 12:59:41;;;;;;;1.32;0.72;;;;;;;21.91;38.00;101094.27;5121347;57;1137038;-75
2022/05/15 13:04:52;;;;;;;0.80;0.60;;;;;;;21.83;35.79;101082.22;5121918;57;1136981;-75
2022/05/15 13:10:14;;;;;;;1.40;0.88;;;;;;;21.55;36.30;101065.20;5066603;57;1137052;-75
2022/05/15 13:15:28;;;;;;;2.85;0.70;;;;;;;21.71;36.69;101073.19;5073975;57;1139564;-76
2022/05/15 13:20:45;;;;;;;2.07;1.03;;;;;;;21.99;38.52;101069.98;4986837;58;1144864;-74
2022/05/15 13:25:53;;;;;;;5.03;1.47;;;;;;;22.29;36.79;101063.71;4963248;57;1139103;-75
2022/05/15 13:31:01;;;;;;;2.33;1.00;;;;;;;22.01;35.06;101070.66;5023623;58;1139127;-75
2022/05/15 13:36:07;;;;;;;1.30;0.80;;;;;;;21.93;37.73;101072.04;5118617;57;1139128;-75
2022/05/15 13:46:48;;;;;;;1.57;0.93;;;;;;;22.38;34.69;101058.56;5141761;56;1139063;-75
2022/05/15 13:51:52;;;;;;;1.45;0.70;;;;;;;22.28;36.28;101059.84;5118230;57;1139595;-75
2022/05/15 13:57:02;;;;;;;2.50;1.02;;;;;;;22.34;35.83;101058.59;5109821;58;1139008;-75
2022/05/15 14:02:22;;;;;;;4.33;2.03;;;;;;;22.55;34.25;101046.28;4945872;58;1139055;-75
2022/05/15 14:07:32;;;;;;;2.58;1.30;;;;;;;22.61;34.97;101041.51;4931367;59;1139118;-75
2022/05/15 14:12:54;;;;;;;8.80;5.22;;;;;;;22.52;34.51;101043.43;5055855;58;1139103;-75
2022/05/15 14:18:04;;;;;;;5.35;3.58;;;;;;;22.37;34.93;101046.10;5136926;57;1139072;-75
2022/05/15 14:23:12;;;;;;;3.90;0.80;;;;;;;22.35;36.83;101044.61;5053732;58;1139375;-75
2022/05/15 14:28:18;;;;;;;1.77;0.75;;;;;;;22.67;36.39;101036.70;5058026;58;1139213;-75
2022/05/15 14:33:28;;;;;;;2.80;0.85;;;;;;;22.89;35.27;101041.73;5048690;58;1139272;-75
2022/05/15 14:38:34;;;;;;;3.95;1.25;;;;;;;22.70;35.46;101043.92;5042056;58;1139022;-75
2022/05/15 14:43:53;;;;;;;2.85;1.12;;;;;;;22.70;35.83;101038.53;5002028;58;1139080;-75
2022/05/15 14:49:25;;;;;;;;;;;;;;;;;;;;;
2022/05/15 14:54:24;;;;;;;1.45;0.98;;;;;;;22.82;34.13;101033.53;5050544;57;1136927;-76
2022/05/15 14:59:32;;;;;;;1.72;1.07;;;;;;;22.80;33.89;101036.92;5129603;57;1137149;-76
2022/05/15 15:04:38;;;;;;;4.53;1.57;;;;;;;22.56;34.03;101043.91;5135199;57;1136891;-77
2022/05/15 15:09:44;;;;;;;3.12;1.30;;;;;;;22.52;34.79;101040.73;5135469;57;1136975;-75
2022/05/15 15:14:49;;;;;;;4.35;1.47;;;;;;;22.52;34.99;101036.69;5175194;56;1137072;-77
2022/05/15 15:19:55;;;;;;;2.20;1.42;;;;;;;22.52;35.92;101022.38;5228346;56;1136936;-76
2022/05/15 15:25:00;;;;;;;8.80;1.30;;;;;;;22.73;35.86;101026.54;5228444;56;1137000;-75
2022/05/15 15:30:08;;;;;;;3.98;1.75;;;;;;;22.89;35.87;101026.89;5228417;56;1136952;-75
2022/05/15 15:35:14;;;;;;;2.47;1.37;;;;;;;22.99;35.27;101022.04;5228528;56;1137288;-76
2022/05/15 15:40:21;;;;;;;2.55;2.00;;;;;;;23.05;36.14;101019.95;5228384;56;1136894;-75
2022/05/15 15:45:30;;;;;;;4.33;1.80;;;;;;;23.09;35.23;101023.41;5137401;56;1136939;-77
2022/05/15 15:50:36;;;;;;;3.67;2.05;;;;;;;23.17;34.73;101023.00;5138621;57;1137170;-76
2022/05/15 15:55:42;;;;;;;2.52;1.40;;;;;;;23.12;35.44;101017.64;5162207;56;1134903;-77
2022/05/15 16:00:48;;;;;;;9.23;1.42;;;;;;;23.09;35.69;101017.17;5143212;56;1135042;-77
2022/05/15 16:05:57;;;;;;;2.92;1.32;;;;;;;23.01;34.93;101016.78;5138247;57;1139496;-76
2022/05/15 16:11:02;;;;;;;2.00;1.22;;;;;;;22.76;33.33;101011.34;5150336;56;1138937;-77
2022/05/15 16:16:09;;;;;;;3.40;1.40;;;;;;;22.61;34.14;101009.16;5200476;56;1138978;-77
2022/05/15 16:21:42;;;;;;;3.70;1.70;;;;;;;22.55;34.77;101001.80;5256492;56;1138936;-76
2022/05/15 16:26:45;;;;;;;4.95;1.37;;;;;;;22.49;35.29;101018.19;5224731;56;1139041;-77
2022/05/15 16:31:51;;;;;;;6.60;1.92;;;;;;;22.43;33.64;101008.16;5235546;55;1139027;-76
2022/05/15 16:36:57;;;;;;;5.50;1.85;;;;;;;22.41;35.32;101015.08;5297201;55;1139434;-77
2022/05/15 16:42:03;;;;;;;10.70;4.28;;;;;;;22.30;34.64;101016.05;5270789;55;1138884;-78
2022/05/15 16:47:08;;;;;;;10.28;8.38;;;;;;;22.21;35.81;101023.86;5275904;55;1141094;-75
2022/05/15 16:52:14;;;;;;;7.42;2.90;;;;;;;22.21;35.98;101020.66;5267571;55;1141078;-77
2022/05/15 16:57:20;;;;;;;3.98;2.67;;;;;;;22.16;35.63;101023.05;5272905;55;1139044;-77
2022/05/15 17:02:25;;;;;;;8.95;5.85;;;;;;;22.09;35.95;101031.03;5269083;55;1139237;-77
2022/05/15 17:07:31;;;;;;;15.93;9.70;;;;;;;21.96;35.78;101029.94;5269639;55;1139253;-78
2022/05/15 17:12:37;;;;;;;11.00;7.67;;;;;;;21.73;36.11;101034.80;5277651;55;1141055;-75
2022/05/15 17:17:43;;;;;;;15.32;7.33;;;;;;;21.54;35.91;101029.07;5261477;55;1141062;-74
2022/05/15 17:22:49;;;;;;;10.93;5.03;;;;;;;21.45;36.49;101036.34;5270154;55;1141111;-75
2022/05/15 17:27:54;;;;;;;8.70;6.25;;;;;;;21.30;36.64;101033.56;5270126;55;1141397;-76
2022/05/15 17:34:12;;;;;;;55.88;47.55;;;;;;;21.18;36.72;101038.14;5268712;55;1138979;-77
2022/05/15 17:38:26;;;;;;;14.10;9.25;;;;;;;21.03;37.09;101040.72;5260837;55;1143192;-74
2022/05/15 17:43:28;;;;;;;46.48;31.12;;;;;;;20.84;37.35;101040.61;5266826;55;1141071;-76
2022/05/15 17:48:36;;;;;;;23.05;10.10;;;;;;;20.71;37.75;101051.07;5251141;55;1143361;-76
2022/05/15 17:53:43;;;;;;;96.65;63.42;;;;;;;20.35;37.66;101053.27;5262443;55;1143222;-75
2022/05/15 17:58:49;;;;;;;20.52;12.33;;;;;;;20.35;37.66;101053.27;5266947;55;1143310;-78
2022/05/15 18:03:56;;;;;;;11.88;7.15;;;;;;;20.23;38.52;101053.28;5258932;55;1143235;-78
2022/05/15 18:09:01;;;;;;;18.10;8.85;;;;;;;20.07;38.33;101060.84;5269987;55;1141110;-75
2022/05/15 18:14:10;;;;;;;6.90;3.83;;;;;;;19.84;38.62;101065.20;5254472;55;1141253;-78
2022/05/15 18:19:15;;;;;;;8.43;3.95;;;;;;;19.63;38.70;101072.36;5276852;55;1139206;-75
2022/05/15 18:24:21;;;;;;;7.22;3.95;;;;;;;19.50;39.01;101073.34;5273049;55;1138913;-76
2022/05/15 18:29:27;;;;;;;9.33;2.60;;;;;;;19.37;39.10;101079.14;5238021;55;1139020;-77
2022/05/15 18:34:33;;;;;;;11.78;5.17;;;;;;;19.23;39.44;101086.45;5273840;55;1138941;-75
2022/05/15 18:39:39;;;;;;;15.50;8.33;;;;;;;19.16;39.69;101086.25;5247550;55;1141418;-74
2022/05/15 18:44:44;;;;;;;17.30;7.00;;;;;;;19.11;40.09;101088.56;5219416;55;1141393;-77
2022/05/15 18:55:14;;;;;;;29.12;11.55;;;;;;;18.89;40.37;101100.69;5199292;55;1141640;-75
2022/05/15 19:00:21;;;;;;;18.00;9.98;;;;;;;18.76;40.47;101109.66;5285754;55;1141087;-75
2022/05/15 19:05:26;;;;;;;18.92;9.90;;;;;;;18.67;40.81;101113.77;5228696;54;1139026;-76
2022/05/15 19:10:32;;;;;;;25.62;12.15;;;;;;;18.58;40.96;101119.08;5204119;55;1139085;-76
2022/05/15 19:15:38;;;;;;;35.83;15.93;;;;;;;18.60;41.48;101118.42;5155528;56;1141143;-76
2022/05/15 19:20:43;;;;;;;9.90;3.72;;;;;;;18.58;41.79;101134.28;5155692;56;1141128;-77
2022/05/15 19:25:49;;;;;;;7.70;2.67;;;;;;;18.47;41.82;101144.75;5159856;56;1137202;-73
2022/05/15 19:30:55;;;;;;;12.35;3.50;;;;;;;18.39;42.13;101153.20;5242385;55;1137284;-75
2022/05/15 19:36:01;;;;;;;10.82;2.87;;;;;;;18.15;42.67;101161.36;5179697;56;1139013;-76
2022/05/15 19:41:08;;;;;;;10.95;2.80;;;;;;;18.11;43.98;101166.66;5182852;55;1139024;-73
2022/05/15 19:46:14;;;;;;;13.80;2.35;;;;;;;17.89;44.49;101157.22;5232662;56;1139285;-73
2022/05/15 19:51:21;;;;;;;5.05;2.42;;;;;;;17.80;45.07;101170.17;5159930;56;1139347;-75
2022/05/15 19:56:34;;;;;;;12.30;2.37;;;;;;;17.69;45.44;101172.22;5159763;56;1137029;-76
2022/05/15 20:01:43;;;;;;;7.73;2.57;;;;;;;17.62;45.66;101180.45;5285761;55;1156905;-73
2022/05/15 20:12:17;;;;;;;4.78;2.20;;;;;;;17.30;46.34;101179.52;5198677;56;1141284;-75
2022/05/15 20:17:23;;;;;;;9.67;3.60;;;;;;;17.17;46.70;101191.88;5165708;56;1139086;-77
2022/05/15 20:22:28;;;;;;;7.07;3.97;;;;;;;17.00;46.71;101192.13;5165925;55;1139280;-74
2022/05/15 20:27:34;;;;;;;6.93;3.17;;;;;;;16.92;47.25;101199.20;5183265;55;1138944;-74
2022/05/15 20:32:40;;;;;;;6.03;3.60;;;;;;;16.83;47.37;101199.55;5284419;55;1139026;-77
2022/05/15 20:37:46;;;;;;;7.27;3.17;;;;;;;16.74;47.71;101198.58;5302968;55;1139021;-78
2022/05/15 20:42:52;;;;;;;12.43;4.60;;;;;;;16.69;47.83;101202.16;5283795;55;1139026;-76
2022/05/15 20:47:57;;;;;;;8.00;3.60;;;;;;;16.59;47.83;101196.45;5146601;55;1141110;-76
2022/05/15 20:53:03;;;;;;;12.67;3.70;;;;;;;16.57;48.14;101193.92;5055040;57;1139227;-75
2022/05/15 20:58:09;;;;;;;12.53;4.07;;;;;;;16.54;48.32;101196.86;5092564;56;1141224;-76
2022/05/15 21:03:15;;;;;;;5.53;3.10;;;;;;;16.62;48.46;101202.36;5165232;56;1141156;-74
2022/05/15 21:08:21;;;;;;;6.00;2.80;;;;;;;16.61;48.22;101207.84;5214085;56;1139004;-75
2022/05/15 21:13:26;;;;;;;14.50;4.00;;;;;;;16.54;48.37;101205.72;5181648;56;1138968;-75
2022/05/15 21:18:32;;;;;;;14.67;5.90;;;;;;;16.48;48.35;101199.63;5195245;56;1141139;-76
2022/05/15 21:23:38;;;;;;;9.93;4.70;;;;;;;16.35;48.34;101204.86;5185822;55;1141371;-78
2022/05/15 21:28:44;;;;;;;17.93;5.83;;;;;;;16.19;48.86;101207.59;5178394;56;1139091;-73
2022/05/15 21:33:50;;;;;;;15.40;6.67;;;;;;;15.99;49.15;101206.37;5244586;56;1141117;-76
2022/05/15 21:44:19;;;;;;;25.50;9.33;;;;;;;15.97;49.79;101203.00;5209473;56;1141350;-73
2022/05/15 21:49:25;;;;;;;17.90;8.63;;;;;;;15.97;49.82;101195.84;5205237;56;1141346;-76
2022/05/15 21:54:31;;;;;;;20.53;8.63;;;;;;;15.92;49.81;101193.21;5208910;54;1141047;-75
2022/05/15 22:05:01;;;;;;;17.67;7.83;;;;;;;15.79;50.07;101201.47;5226009;56;1141097;-78
2022/05/15 22:10:08;;;;;;;17.97;6.53;;;;;;;15.56;49.99;101187.52;5263977;55;1141053;-74
2022/05/15 22:15:14;;;;;;;15.17;6.73;;;;;;;15.40;50.41;101191.98;5272495;55;1141185;-76
2022/05/15 22:20:20;;;;;;;23.93;7.50;;;;;;;15.34;50.85;101193.83;5223084;55;1141153;-78
2022/05/15 22:25:26;;;;;;;14.13;4.73;;;;;;;15.33;51.13;101189.96;5145542;56;1141081;-74
2022/05/15 22:30:32;;;;;;;19.77;5.33;;;;;;;15.21;50.89;101191.88;5179564;55;1141107;-73
2022/05/15 22:35:43;;;;;;;22.23;6.60;;;;;;;15.04;51.06;101189.33;5184415;55;1139044;-75
2022/05/15 22:40:49;;;;;;;17.83;7.03;;;;;;;14.91;51.61;101194.02;5201030;56;1139073;-76
2022/05/15 22:45:55;;;;;;;20.77;7.07;;;;;;;14.67;51.78;101204.91;5230740;55;1139029;-77
2022/05/15 22:51:01;;;;;;;36.15;7.03;;;;;;;14.40;51.93;101206.72;5227243;55;1139025;-76
2022/05/15 22:56:07;;;;;;;31.93;5.33;;;;;;;14.31;52.81;101207.95;5222115;56;1139403;-77
2022/05/15 23:01:14;;;;;;;20.00;5.07;;;;;;;14.35;53.17;101204.07;5231870;55;1139042;-75
2022/05/15 23:11:42;;;;;;;25.10;4.90;;;;;;;14.40;53.91;101196.56;5163019;56;1136906;-77
2022/05/15 23:16:48;;;;;;;18.30;4.27;;;;;;;14.29;53.55;101196.09;5221016;56;1139054;-74
2022/05/15 23:21:54;;;;;;;9.53;3.43;;;;;;;14.22;54.12;101205.53;5219979;55;1139213;-74
2022/05/15 23:27:01;;;;;;;11.60;3.67;;;;;;;14.13;54.11;101203.64;5220020;55;1137158;-74
2022/05/15 23:32:10;;;;;;;5.90;2.70;;;;;;;14.01;54.38;101205.98;5212296;55;1139100;-73
2022/05/15 23:37:18;;;;;;;19.23;3.57;;;;;;;13.96;54.95;101201.50;5206566;56;1134949;-77
2022/05/15 23:42:24;;;;;;;5.90;3.00;;;;;;;13.81;55.22;101199.59;5228504;55;1136910;-76
2022/05/15 23:47:31;;;;;;;11.60;3.40;;;;;;;13.74;55.88;101202.40;5228474;55;1139022;-77
2022/05/15 23:52:37;;;;;;;7.97;3.00;;;;;;;13.65;56.05;101196.47;5228642;56;1141651;-76
2022/05/15 23:57:42;;;;;;;6.07;3.30;;;;;;;13.64;56.42;101201.42;5228657;56;1138919;-74
